Aérodrome :
LOGIN :

S'inscrire | Disclaimer

   EN    FR    IT 

 










Légende :    VFR   VFR Marginal   IFR   IFR Intensif   IFR Très Intensif
Visi : 
Plafond : 
>= 8 km
>= 3000ft
5 à 8 km
1000 à 3000 ft
1500m à 5 km
500 à 1000 ft
800 à 1500m
200 à 500 ft
< 800m
< 200 ft
Symboles :   Orages  Brouillard  Fortes neiges  Fortes précipitations  Vent > 20 kt
SIGMETs :   Divers  Orages  Givrage  Turbulence  Onde Orograph.  Cendres Volcan.







- Altitude de l'aérodrome : 2595 ft
- Code IATA : SLM


LESA - Salamanca Matacan

DERNIER METAR :
  • 181100Z 30007KT 9999 FEW012 SCT022 BKN040 13/08 Q1012

METARs EXPIRÉS :
  • 181030Z 28008KT 9999 FEW012 SCT025 BKN040 12/08 Q1012
  • 181000Z 27009KT 240V300 9999 FEW015 SCT025 12/08 Q1013
  • 180930Z 27006KT 9999 SCT011 SCT022 11/09 Q1013
  • 180900Z 26005KT 9999 FEW013 11/09 Q1013
  • 180830Z 23008KT 9999 FEW025 SCT045 11/09 Q1013

TAF TAF LESA
Valide du 18 à 06h jusqu'au 19 à 06h UTC


180500Z 1806/1906 16007KT 8000 SCT015 BKN035 TX14/1813Z TN06/1906Z
PROB30
TEMPO 1806/1807 1500 -RA BCFG BKN008
TEMPO 1806/1815 3000 RA SHRA BKN014 SCT025TCU
PROB30
TEMPO 1806/1815 3000 TSRA BKN014 SCT025CB
Pas de NOTAMs connus pour ce terrain.
5 SIGMETs publiés pour la FIR Madrid (LECM) :
 
Turbulence forte
LECM SIGMET 8 VALID 180900/181300 LEVA
LECM MADRID FIR/UIR SEV TURB FCST W OF LINE N4440 W006 - N4040 W00510 FL220/320 MOV E 10KT NC=
Orages noyés dans la masse
LECM SIGMET 13 VALID 181100/181400 LEVA
LECM MADRID FIR/UIR EMBD TS FCST E OF LINE N43 W00120 - N4040 W00130 TOP FL380 MOV NE NC=
Turbulence forte
LECM SIGMET 12 VALID 181200/181600 LEVA
LECM MADRID FIR/UIR SEV TURB FCST W OF LINE N4420 W004 - N4040 W00410 FL210/320 MOV E 10KT NC=
Orages noyés dans la masse
LECM SIGMET 11 VALID 181100/181400 LEVA
LECM MADRID FIR/UIR EMBD TS FCST E OF LINE N3930 W00220 - N3720 W00220 TOP FL380 MOV NE NC=
Orages noyés dans la masse
LECM SIGMET 10 VALID 181000/181200 LEVA
LECM MADRID FIR/UIR EMBD TS OBS AT 0945Z E OF LINE N3750 W003 - N3550 W00410 TOP FL400 MOV E NC=



MET'MAP, la Météo Aéronautique d'un coup d'oeil ! - Copyright ORBIFLY Décembre 2007 - Disclaimer

ORBIFLY MET'MAP TEAM :

Programmation & Développement : Alexandra Zaïnal
Conception & Développement : Baudouin d'Aumeries
Co-Programmation & Développement : Marc-Olivier Méhu
Soutien technique & logistique : Manuel Goepfert

Contact : metmap@orbifly.com




SOURCES & CREDITS :

   NOAA